Offutt Air Force Base, NE (68113)

3:34 PM CDT on July 25, 2016 (GMT -0500)
Offutt Air Force Base | | Change Station

Elev 1047 ft 41.12 °N, 95.91 °W | Updated 36 minutes ago

Clear
Clear
86 °F
Feels Like 88 °F
N
1
Wind Variable Wind from Variable

Today
High -- | Low -- °F
--% Chance of Precip.
Yesterday
High -- | Low -- °F
Precip. -- in
Pressure 30.07 in
Visibility 10.0 miles
Clouds Clear
Heat Index 88 °F
Dew Point 66 °F
Humidity 51%
Rainfall 0.00 in
Snow Depth Not available.
6:13 AM 8:46 PM
Waning Gibbous, 62% visible
METAR KOFF 251958Z AUTO VRB01KT 10SM CLR 30/19 A3008 RMK AO2 SLP182 T02990187 $
Pressure 30.07 in
Visibility 10.0 miles
Clouds Clear
Heat Index 88 °F
Dew Point 66 °F
Humidity 51%
Rainfall 0.00 in
Snow Depth Not available.
6:13 AM 8:46 PM
Waning Gibbous, 62% visible
METAR KOFF 251958Z AUTO VRB01KT 10SM CLR 30/19 A3008 RMK AO2 SLP182 T02990187 $

10-Day Weather Forecast

Almanac

Astronomy

Jul. 25, 2016 Rise Set
Actual Time
Civil Twilight
Nautical Twilight
Astronomical Twilight
Moon
Length of Visible Light
Length of Day
Tomorrow will be .
, % of the Moon is Illuminated

Today's Extremes

State Highs State Lows

Community

WunderPhotos

Upload Photos

1,927,415 photos uploaded!

WunderBlog® & News

Nearby

Air Quality

  Air Quality AQ Index Pollutant
Not available.

Snow Depth

Station Depth Elevation

Earthquake Activity

City Distance Mag. Time & Date
Minimum magnitude displayed is 2.5.

Coastal Water Temperatures

Place Temperature

Stations

Nearby Weather Stations

Station Location Temp. Windchill Dew Point Humidity Wind Precip. Elev Updated Type
                   

Watches & Warnings

There are currently no watches in effect.